createdAt,value
2023-11-30T00:01:25.602Z,1.05
2023-11-30T00:03:53.129Z,1.58
2023-11-30T00:06:20.807Z,1.00
2023-11-30T00:08:48.303Z,1.25
2023-11-30T00:11:15.706Z,1.30
2023-11-30T00:13:43.179Z,1.50
2023-11-30T00:16:11.399Z,1.05
2023-11-30T00:18:38.722Z,1.10
2023-11-30T00:21:06.974Z,1.05
2023-11-30T00:23:36.436Z,1.33
2023-11-30T00:26:03.925Z,1.10
2023-11-30T00:28:31.377Z,1.02
2023-11-30T00:30:58.740Z,0.95
2023-11-30T00:33:26.174Z,1.13
2023-11-30T00:35:53.734Z,1.30
2023-11-30T00:38:21.062Z,1.00
2023-11-30T00:40:48.480Z,0.80
2023-11-30T00:43:15.871Z,1.20
2023-11-30T00:45:43.517Z,1.40
2023-11-30T00:50:38.472Z,0.90
2023-11-30T00:53:05.825Z,1.60
2023-11-30T00:55:33.098Z,1.55
2023-11-30T00:58:00.407Z,1.33
2023-11-30T01:00:27.829Z,1.10
2023-11-30T01:02:55.205Z,1.38
2023-11-30T01:05:22.871Z,1.35
2023-11-30T01:07:50.174Z,1.00
2023-11-30T01:10:17.514Z,1.52
2023-11-30T01:12:44.944Z,1.38
2023-11-30T01:15:12.302Z,1.23
2023-11-30T01:17:39.741Z,1.10
2023-11-30T01:20:07.871Z,1.25
2023-11-30T01:22:35.155Z,1.08
2023-11-30T01:25:02.468Z,1.15
2023-11-30T01:27:29.988Z,1.30
2023-11-30T01:29:57.385Z,1.33
2023-11-30T01:32:24.754Z,1.40
2023-11-30T01:34:52.098Z,1.33
2023-11-30T01:37:19.401Z,1.55
2023-11-30T01:39:47.838Z,1.17
2023-11-30T01:42:15.661Z,1.35
2023-11-30T01:47:10.295Z,1.38
2023-11-30T01:49:37.645Z,1.40
2023-11-30T01:52:05.991Z,1.63
2023-11-30T01:54:33.615Z,1.40
2023-11-30T01:57:01.244Z,1.10
2023-11-30T01:59:28.734Z,1.45
2023-11-30T02:01:56.224Z,1.10
2023-11-30T02:04:23.994Z,1.63
2023-11-30T02:06:51.437Z,1.23
2023-11-30T02:09:18.829Z,1.20
2023-11-30T02:11:46.431Z,1.25
2023-11-30T02:14:13.701Z,1.05
2023-11-30T02:16:41.100Z,1.55
2023-11-30T02:19:08.496Z,1.05
2023-11-30T02:21:35.811Z,1.20
2023-11-30T02:24:03.541Z,1.40
2023-11-30T02:28:58.008Z,1.02
2023-11-30T02:31:25.260Z,1.85
2023-11-30T02:33:52.645Z,1.13
2023-11-30T02:36:20.049Z,1.40
2023-11-30T02:38:47.292Z,1.55
2023-11-30T02:41:14.839Z,1.85
2023-11-30T02:43:42.146Z,1.10
2023-11-30T02:46:12.485Z,1.45
2023-11-30T02:48:40.060Z,1.23
2023-11-30T02:51:07.614Z,1.13
2023-11-30T02:53:34.921Z,1.42
2023-11-30T02:56:02.320Z,1.38
2023-11-30T02:58:29.745Z,1.20
2023-11-30T03:00:57.087Z,1.13
2023-11-30T03:03:24.479Z,1.67
2023-11-30T03:05:51.891Z,1.05
2023-11-30T03:08:19.230Z,1.33
2023-11-30T03:10:46.592Z,0.93
2023-11-30T03:13:13.938Z,1.20
2023-11-30T03:15:48.530Z,1.20
2023-11-30T03:18:16.157Z,1.40
2023-11-30T03:23:10.960Z,1.20
2023-11-30T03:25:40.644Z,1.38
2023-11-30T03:28:08.004Z,1.08
2023-11-30T03:30:35.438Z,1.15
2023-11-30T03:33:03.000Z,0.93
2023-11-30T03:35:30.446Z,2.00
2023-11-30T03:37:57.963Z,1.40
2023-11-30T03:40:25.399Z,1.55
2023-11-30T03:42:52.926Z,1.35
2023-11-30T03:45:21.438Z,1.02
2023-11-30T03:47:48.804Z,1.20
2023-11-30T03:50:16.124Z,0.98
2023-11-30T03:52:43.544Z,1.25
2023-11-30T03:55:11.020Z,1.33
2023-11-30T03:57:38.352Z,1.30
2023-11-30T04:00:09.096Z,1.13
2023-11-30T04:02:36.481Z,1.27
2023-11-30T04:05:05.358Z,1.50
2023-11-30T04:07:33.283Z,1.17
2023-11-30T04:10:00.621Z,1.10
2023-11-30T04:12:27.930Z,0.77
2023-11-30T04:14:55.404Z,1.25
2023-11-30T04:17:22.991Z,1.08
2023-11-30T04:19:50.641Z,1.48
2023-11-30T04:22:18.322Z,1.02
2023-11-30T04:27:13.226Z,1.50
2023-11-30T04:29:40.558Z,0.93
2023-11-30T04:32:08.217Z,1.00
2023-11-30T04:34:35.771Z,1.08
2023-11-30T04:37:03.192Z,1.17
2023-11-30T04:39:30.636Z,0.88
2023-11-30T04:41:58.104Z,1.23
2023-11-30T04:44:30.114Z,1.30
2023-11-30T04:46:58.332Z,1.25
2023-11-30T04:49:25.666Z,1.10
2023-11-30T04:51:53.047Z,0.90
2023-11-30T04:54:20.365Z,1.50
2023-11-30T04:56:47.689Z,1.08
2023-11-30T04:59:15.082Z,1.10
2023-11-30T05:01:42.673Z,1.13
2023-11-30T05:04:10.745Z,1.35
2023-11-30T05:06:38.243Z,1.08
2023-11-30T05:09:07.186Z,1.50
2023-11-30T05:11:34.526Z,1.27
2023-11-30T05:14:01.871Z,0.98
2023-11-30T05:16:29.175Z,1.25
2023-11-30T05:18:56.483Z,1.10
2023-11-30T05:21:23.932Z,0.98
2023-11-30T05:23:52.660Z,1.38
2023-11-30T05:26:19.925Z,0.73
2023-11-30T05:28:47.616Z,1.33
2023-11-30T05:33:42.202Z,0.82
2023-11-30T05:36:10.202Z,0.90
2023-11-30T05:38:37.594Z,1.00
2023-11-30T05:41:05.013Z,1.00
2023-11-30T05:43:36.219Z,1.08
2023-11-30T05:46:06.569Z,1.27
2023-11-30T05:48:35.157Z,1.70
2023-11-30T05:51:02.685Z,0.60
2023-11-30T05:53:30.059Z,0.93
2023-11-30T05:55:57.421Z,1.00
2023-11-30T05:58:24.749Z,1.27
2023-11-30T06:00:52.101Z,1.02
2023-11-30T06:03:19.571Z,0.85
2023-11-30T06:05:46.920Z,1.00
2023-11-30T06:08:14.275Z,0.80
2023-11-30T06:10:41.663Z,1.15
2023-11-30T06:13:09.303Z,1.05
2023-11-30T06:15:36.787Z,1.00
2023-11-30T06:18:04.276Z,0.80
2023-11-30T06:20:32.705Z,0.93
2023-11-30T06:23:00.237Z,1.08
2023-11-30T06:25:27.703Z,1.27
2023-11-30T06:27:54.980Z,1.30
2023-11-30T06:30:22.382Z,1.13
2023-11-30T06:32:49.778Z,1.02
2023-11-30T06:35:17.136Z,0.98
2023-11-30T06:37:44.558Z,1.30
2023-11-30T06:40:12.186Z,1.00
2023-11-30T06:42:39.520Z,1.42
2023-11-30T06:45:07.367Z,1.65
2023-11-30T06:50:02.133Z,1.05
2023-11-30T06:52:29.411Z,0.98
2023-11-30T06:54:56.918Z,1.00
2023-11-30T06:57:25.418Z,1.08
2023-11-30T06:59:54.208Z,1.10
2023-11-30T07:02:22.263Z,1.10
2023-11-30T07:04:50.241Z,0.80
2023-11-30T07:07:27.549Z,0.88
2023-11-30T07:09:59.921Z,0.68
2023-11-30T07:12:27.269Z,0.90
2023-11-30T07:14:55.049Z,0.60
2023-11-30T07:17:25.542Z,1.02
2023-11-30T07:19:54.068Z,1.15
2023-11-30T07:22:23.595Z,0.88
2023-11-30T07:24:51.122Z,0.80
2023-11-30T07:27:19.803Z,1.00
2023-11-30T07:29:48.015Z,0.88
2023-11-30T07:32:19.184Z,1.33
2023-11-30T07:34:46.876Z,1.10
2023-11-30T07:37:20.904Z,1.02
2023-11-30T07:39:48.246Z,1.02
2023-11-30T07:42:28.676Z,0.95
2023-11-30T07:45:01.511Z,0.80
2023-11-30T07:47:29.693Z,1.10
2023-11-30T07:49:57.025Z,1.27
2023-11-30T07:52:24.402Z,0.88
2023-11-30T07:54:51.856Z,1.20
2023-11-30T07:57:19.705Z,1.10
2023-11-30T08:02:17.765Z,0.63
2023-11-30T08:04:47.366Z,1.23
2023-11-30T08:07:14.834Z,0.85
2023-11-30T08:09:42.240Z,1.10
2023-11-30T08:12:09.741Z,0.85
2023-11-30T08:14:37.098Z,0.80
2023-11-30T08:17:06.471Z,0.90
2023-11-30T08:19:34.453Z,0.82
2023-11-30T08:22:01.976Z,0.90
2023-11-30T08:24:30.659Z,0.70
2023-11-30T08:26:58.493Z,1.00
2023-11-30T08:31:53.245Z,0.70
2023-11-30T08:34:20.665Z,0.98
2023-11-30T08:36:49.236Z,0.85
2023-11-30T08:39:25.068Z,0.98
2023-11-30T08:41:54.963Z,0.80
2023-11-30T08:44:25.117Z,0.75
2023-11-30T08:46:53.506Z,0.68
2023-11-30T08:49:21.044Z,1.00
2023-11-30T08:51:48.418Z,1.30
2023-11-30T08:54:15.825Z,1.10
2023-11-30T08:56:43.324Z,1.10
2023-11-30T08:59:10.844Z,0.85
2023-11-30T09:01:38.319Z,0.82
2023-11-30T09:04:06.608Z,0.85
2023-11-30T09:06:34.969Z,0.75
2023-11-30T09:09:03.064Z,1.10
2023-11-30T09:11:31.839Z,0.95
2023-11-30T09:13:59.314Z,0.98
2023-11-30T09:16:27.032Z,0.80
2023-11-30T09:21:25.468Z,0.40
2023-11-30T09:23:53.964Z,0.65
2023-11-30T09:26:23.426Z,0.98
2023-11-30T09:28:51.017Z,0.55
2023-11-30T09:31:18.574Z,0.90
2023-11-30T09:33:45.982Z,1.00
2023-11-30T09:36:14.431Z,0.85
2023-11-30T09:38:42.691Z,0.80
2023-11-30T09:41:14.622Z,0.80
2023-11-30T09:43:41.998Z,0.90
2023-11-30T09:46:10.915Z,1.10
2023-11-30T09:48:38.797Z,0.70
2023-11-30T09:51:06.682Z,0.80
2023-11-30T09:53:34.393Z,0.90
2023-11-30T09:56:01.773Z,0.82
2023-11-30T09:58:29.329Z,0.90
2023-11-30T10:00:56.936Z,0.82
2023-11-30T10:03:34.931Z,0.88
2023-11-30T10:06:02.717Z,0.70
2023-11-30T10:08:30.080Z,1.08
2023-11-30T10:10:57.529Z,1.10
2023-11-30T10:13:26.807Z,0.80
2023-11-30T10:15:54.636Z,0.80
2023-11-30T10:18:22.400Z,0.77
2023-11-30T10:20:49.993Z,0.73
2023-11-30T10:23:17.605Z,0.90
2023-11-30T10:25:47.769Z,0.50
2023-11-30T10:28:15.739Z,0.70
2023-11-30T10:30:45.070Z,0.80
2023-11-30T10:33:23.443Z,0.73
2023-11-30T10:35:53.207Z,0.52
2023-11-30T10:38:34.182Z,0.75
2023-11-30T10:41:06.018Z,0.80
2023-11-30T10:43:36.942Z,0.85
2023-11-30T10:46:08.770Z,0.70
2023-11-30T10:48:40.249Z,0.65
2023-11-30T10:51:08.937Z,1.00
2023-11-30T10:54:02.599Z,0.57
2023-11-30T10:56:31.114Z,0.70
2023-11-30T10:59:01.605Z,0.88
2023-11-30T11:01:36.928Z,0.77
2023-11-30T11:04:09.855Z,0.65
2023-11-30T11:06:37.507Z,0.60
2023-11-30T11:11:41.002Z,0.50
2023-11-30T11:14:08.720Z,0.90
2023-11-30T11:19:10.806Z,0.60
2023-11-30T11:21:40.057Z,0.70
2023-11-30T11:24:09.265Z,0.68
2023-11-30T11:26:47.957Z,0.40
2023-11-30T11:29:21.488Z,0.63
2023-11-30T11:31:55.579Z,0.70
2023-11-30T11:34:23.042Z,0.52
2023-11-30T11:36:50.625Z,0.68
2023-11-30T11:39:18.179Z,0.75
2023-11-30T11:41:51.376Z,0.70
2023-11-30T11:44:19.189Z,0.50
2023-11-30T11:46:47.234Z,0.50
2023-11-30T11:49:14.846Z,0.70
2023-11-30T11:51:46.799Z,0.85
2023-11-30T11:54:22.150Z,0.55
2023-11-30T11:56:53.875Z,0.75
2023-11-30T11:59:28.943Z,0.50
2023-11-30T12:01:59.419Z,0.52
2023-11-30T12:04:32.201Z,0.55
2023-11-30T12:07:00.779Z,0.50
2023-11-30T12:09:28.126Z,0.30
2023-11-30T12:11:57.944Z,0.50
2023-11-30T12:14:25.316Z,0.50
2023-11-30T12:16:53.518Z,0.70
2023-11-30T12:19:21.395Z,0.57
2023-11-30T12:21:48.895Z,0.43
2023-11-30T12:24:16.476Z,0.73
2023-11-30T12:26:43.868Z,0.57
2023-11-30T12:29:11.628Z,0.60
2023-11-30T12:31:38.947Z,0.60
2023-11-30T12:34:07.614Z,0.93
2023-11-30T12:36:35.402Z,1.10
2023-11-30T12:39:25.144Z,0.57
2023-11-30T12:41:52.692Z,0.70
2023-11-30T12:44:21.303Z,0.65
2023-11-30T12:46:50.084Z,0.70
2023-11-30T12:52:53.610Z,0.80
2023-11-30T12:55:21.460Z,0.40
2023-11-30T12:57:49.148Z,0.63
2023-11-30T13:00:17.128Z,0.75
2023-11-30T13:02:47.302Z,0.75
2023-11-30T13:05:15.753Z,0.60
2023-11-30T13:07:43.351Z,0.50
2023-11-30T13:10:14.829Z,0.95
2023-11-30T13:12:43.123Z,0.77
2023-11-30T13:15:13.781Z,0.70
2023-11-30T13:17:41.799Z,0.88
2023-11-30T13:20:15.143Z,0.80
2023-11-30T13:22:47.399Z,0.65
2023-11-30T13:25:15.740Z,0.65
2023-11-30T13:27:47.674Z,0.77
2023-11-30T13:30:17.429Z,0.95
2023-11-30T13:32:45.200Z,0.95
2023-11-30T13:35:12.604Z,0.82
2023-11-30T13:37:40.529Z,0.85
2023-11-30T13:40:09.237Z,0.63
2023-11-30T13:42:36.801Z,0.73
2023-11-30T13:45:06.887Z,0.80
2023-11-30T13:47:34.551Z,0.75
2023-11-30T13:52:29.329Z,0.90
2023-11-30T13:54:56.711Z,0.63
2023-11-30T13:57:24.111Z,1.10
2023-11-30T13:59:51.743Z,1.10
2023-11-30T14:02:19.556Z,1.08
2023-11-30T14:04:47.738Z,1.00
2023-11-30T14:07:15.130Z,0.90
2023-11-30T14:09:42.446Z,1.08
2023-11-30T14:12:10.002Z,1.00
2023-11-30T14:14:39.493Z,0.63
2023-11-30T14:17:07.572Z,0.88
2023-11-30T14:19:35.010Z,1.10
2023-11-30T14:22:02.552Z,0.70
2023-11-30T14:24:31.237Z,0.88
2023-11-30T14:26:58.620Z,0.90
2023-11-30T14:29:26.058Z,0.90
2023-11-30T14:31:53.856Z,0.85
2023-11-30T14:34:21.570Z,1.00
2023-11-30T14:39:16.176Z,0.85
2023-11-30T14:41:43.573Z,0.80
2023-11-30T14:44:12.293Z,0.73
2023-11-30T14:46:40.110Z,1.00
2023-11-30T14:49:07.551Z,0.82
2023-11-30T14:51:35.010Z,0.95
2023-11-30T14:54:05.471Z,0.85
2023-11-30T14:56:33.590Z,0.85
2023-11-30T14:59:01.457Z,0.90
2023-11-30T15:01:28.925Z,0.88
2023-11-30T15:03:56.456Z,1.00
2023-11-30T15:06:24.663Z,1.00
2023-11-30T15:08:53.068Z,1.08
2023-11-30T15:11:20.411Z,0.70
2023-11-30T15:13:47.708Z,0.77
2023-11-30T15:16:15.071Z,1.10
2023-11-30T15:18:42.494Z,0.93
2023-11-30T15:21:10.034Z,1.20
2023-11-30T15:23:37.406Z,1.10
2023-11-30T15:26:04.814Z,0.80
2023-11-30T15:28:32.204Z,1.10
2023-11-30T15:30:59.988Z,0.60
2023-11-30T15:33:27.976Z,0.90
2023-11-30T15:35:55.381Z,0.88
2023-11-30T15:38:31.182Z,0.70
2023-11-30T15:40:58.953Z,0.90
2023-11-30T15:43:26.501Z,1.05
2023-11-30T15:45:53.982Z,1.10
2023-11-30T15:48:22.793Z,0.93
2023-11-30T15:50:50.191Z,0.70
2023-11-30T15:53:17.902Z,1.40
2023-11-30T15:58:12.478Z,1.95
2023-11-30T16:00:39.997Z,1.50
2023-11-30T16:03:09.087Z,1.10
2023-11-30T16:05:38.266Z,1.25
2023-11-30T16:08:05.561Z,0.98
2023-11-30T16:10:33.119Z,0.88
2023-11-30T16:13:00.451Z,0.95
2023-11-30T16:15:28.975Z,0.98
2023-11-30T16:17:56.719Z,0.93
2023-11-30T16:22:51.276Z,0.70
2023-11-30T16:25:18.663Z,0.85
2023-11-30T16:27:46.050Z,0.80
2023-11-30T16:30:13.950Z,0.65
2023-11-30T16:32:41.519Z,0.80
2023-11-30T16:37:36.634Z,0.93
2023-11-30T16:40:06.041Z,1.10
2023-11-30T16:42:33.472Z,1.10
2023-11-30T16:45:00.823Z,1.48
2023-11-30T16:47:28.293Z,1.60
2023-11-30T16:49:55.629Z,1.40
2023-11-30T16:52:23.049Z,1.40
2023-11-30T16:54:50.564Z,1.17
2023-11-30T16:57:17.970Z,1.00
2023-11-30T16:59:45.393Z,1.30
2023-11-30T17:02:12.771Z,1.10
2023-11-30T17:04:40.189Z,1.20
2023-11-30T17:07:07.568Z,1.02
2023-11-30T17:09:34.966Z,0.95
2023-11-30T17:12:02.321Z,1.20
2023-11-30T17:14:29.696Z,0.98
2023-11-30T17:16:57.101Z,0.77
2023-11-30T17:19:24.496Z,1.02
2023-11-30T17:21:53.567Z,0.80
2023-11-30T17:24:21.056Z,0.82
2023-11-30T17:26:48.814Z,0.93
2023-11-30T17:31:43.209Z,0.85
2023-11-30T17:34:10.732Z,0.82
2023-11-30T17:39:06.427Z,0.88
2023-11-30T17:41:33.736Z,1.10
2023-11-30T17:44:01.018Z,1.00
2023-11-30T17:46:28.377Z,1.02
2023-11-30T17:48:55.729Z,0.68
2023-11-30T17:51:23.166Z,0.70
2023-11-30T17:53:50.764Z,0.85
2023-11-30T17:56:18.063Z,1.08
2023-11-30T17:58:45.367Z,1.10
2023-11-30T18:01:12.758Z,0.88
2023-11-30T18:03:40.148Z,1.00
2023-11-30T18:06:10.686Z,0.90
2023-11-30T18:09:54.303Z,0.77
2023-11-30T18:14:38.772Z,0.80
2023-11-30T18:17:06.802Z,1.02
2023-11-30T18:19:34.296Z,1.00
2023-11-30T18:23:08.587Z,0.80
2023-11-30T18:25:36.011Z,1.05
2023-11-30T18:28:03.809Z,1.05
2023-11-30T18:30:31.784Z,1.00
2023-11-30T18:32:59.357Z,0.70
2023-11-30T18:35:26.929Z,0.88
2023-11-30T18:37:54.458Z,0.90
2023-11-30T18:41:30.662Z,0.90
2023-11-30T18:43:58.420Z,0.93
2023-11-30T18:48:05.558Z,0.70
2023-11-30T18:53:00.415Z,1.20
2023-11-30T18:55:27.921Z,1.05
2023-11-30T18:57:55.531Z,0.90
2023-11-30T19:00:23.124Z,1.10
2023-11-30T19:02:51.089Z,0.90
2023-11-30T19:05:18.816Z,0.70
2023-11-30T19:08:40.066Z,0.98
2023-11-30T19:11:08.599Z,0.77
2023-11-30T19:13:36.725Z,0.68
2023-11-30T19:16:04.480Z,0.70
2023-11-30T19:20:48.775Z,0.60
2023-11-30T19:23:16.046Z,0.80
2023-11-30T19:25:44.641Z,0.80
2023-11-30T19:28:12.006Z,0.70
2023-11-30T19:30:39.356Z,0.65
2023-11-30T19:33:06.791Z,0.63
2023-11-30T19:35:34.993Z,0.55
2023-11-30T19:38:02.422Z,0.55
2023-11-30T19:40:29.734Z,0.77
2023-11-30T19:42:57.891Z,0.90
2023-11-30T19:45:25.540Z,0.90
2023-11-30T19:47:53.189Z,0.98
2023-11-30T19:50:20.614Z,0.88
2023-11-30T19:52:48.087Z,0.93
2023-11-30T19:55:15.423Z,0.77
2023-11-30T19:57:42.812Z,0.90
2023-11-30T20:00:10.683Z,0.50
2023-11-30T20:05:05.575Z,0.75
2023-11-30T20:07:32.918Z,1.30
2023-11-30T20:10:00.351Z,1.35
2023-11-30T20:12:27.925Z,1.15
2023-11-30T20:14:55.258Z,0.82
2023-11-30T20:17:22.545Z,0.80
2023-11-30T20:19:49.894Z,0.90
2023-11-30T20:22:17.204Z,0.88
2023-11-30T20:24:44.724Z,1.05
2023-11-30T20:27:12.236Z,0.95
2023-11-30T20:29:39.543Z,0.77
2023-11-30T20:32:07.219Z,1.02
2023-11-30T20:34:34.557Z,0.75
2023-11-30T20:37:01.919Z,1.20
2023-11-30T20:39:29.554Z,1.00
2023-11-30T20:41:57.014Z,1.42
2023-11-30T20:44:24.840Z,1.35
2023-11-30T20:49:19.449Z,0.95
2023-11-30T20:51:46.770Z,1.02
2023-11-30T20:54:14.084Z,1.33
2023-11-30T20:56:41.618Z,1.27
2023-11-30T20:59:08.978Z,1.20
2023-11-30T21:01:36.480Z,1.13
2023-11-30T21:04:04.258Z,0.75
2023-11-30T21:06:31.649Z,0.95
2023-11-30T21:08:59.180Z,0.75
2023-11-30T21:11:26.570Z,0.80
2023-11-30T21:13:54.130Z,1.10
2023-11-30T21:16:22.372Z,1.60
2023-11-30T21:18:51.734Z,2.10
2023-11-30T21:21:19.289Z,2.63
2023-11-30T21:23:46.681Z,2.40
2023-11-30T21:26:14.056Z,1.48
2023-11-30T21:28:41.368Z,2.20
2023-11-30T21:31:10.741Z,1.55
2023-11-30T21:33:38.308Z,1.73
2023-11-30T21:36:06.135Z,1.88
2023-11-30T21:41:00.649Z,0.57
2023-11-30T21:43:27.964Z,0.80
2023-11-30T21:45:55.315Z,0.35
2023-11-30T21:48:22.802Z,0.95
2023-11-30T21:50:50.153Z,1.17
2023-11-30T21:53:17.434Z,0.70
2023-11-30T21:55:45.014Z,0.70
2023-11-30T21:58:12.386Z,0.95
2023-11-30T22:00:39.941Z,0.77
2023-11-30T22:03:07.526Z,0.17
2023-11-30T22:05:37.182Z,0.55
2023-11-30T22:08:08.111Z,0.90
2023-11-30T22:10:35.465Z,1.00
2023-11-30T22:13:03.250Z,1.08
2023-11-30T22:15:30.843Z,0.50
2023-11-30T22:18:00.084Z,0.70
2023-11-30T22:20:27.592Z,0.50
2023-11-30T22:22:55.278Z,1.05
2023-11-30T22:25:24.149Z,1.90
2023-11-30T22:27:51.566Z,1.88
2023-11-30T22:30:18.948Z,2.17
2023-11-30T22:32:46.473Z,1.50
2023-11-30T22:35:13.908Z,1.58
2023-11-30T22:37:41.435Z,0.90
2023-11-30T22:40:09.333Z,0.60
2023-11-30T22:42:36.694Z,0.75
2023-11-30T22:45:04.749Z,0.75
2023-11-30T22:47:34.593Z,0.70
2023-11-30T22:50:01.955Z,1.00
2023-11-30T22:52:29.462Z,0.82
2023-11-30T22:54:57.176Z,1.00
2023-11-30T22:57:25.042Z,0.70
2023-11-30T22:59:52.417Z,0.80
2023-11-30T23:02:21.770Z,1.00
2023-11-30T23:04:49.493Z,1.08
2023-11-30T23:07:17.421Z,0.65
2023-11-30T23:09:44.760Z,0.35
2023-11-30T23:12:12.913Z,0.88
2023-11-30T23:14:40.817Z,0.85
2023-11-30T23:17:11.766Z,0.65
2023-11-30T23:19:39.473Z,0.95
2023-11-30T23:22:07.851Z,0.50
2023-11-30T23:24:35.409Z,0.50
2023-11-30T23:27:02.982Z,0.68
2023-11-30T23:29:30.572Z,0.50
2023-11-30T23:31:57.906Z,0.40
2023-11-30T23:34:25.226Z,0.50
2023-11-30T23:36:52.705Z,0.75
2023-11-30T23:39:20.125Z,0.60
2023-11-30T23:41:47.644Z,0.50
2023-11-30T23:44:15.255Z,0.55
2023-11-30T23:46:42.702Z,0.73
2023-11-30T23:49:10.215Z,0.63
2023-11-30T23:51:37.690Z,0.55
2023-11-30T23:54:05.076Z,0.47
2023-11-30T23:56:32.655Z,0.68
2023-11-30T23:59:00.038Z,1.10
